Alice, North Dakota
Current Conditions -  °F | °C
As of 1:55 PM on Monday 24 Nov 2014 (Local Time) from KBAC Reporting Station
Light Snow Light Snow  
Wind Chill:   Ceiling: 1400
Heat Index: 18°   Visibility: 10mi
Dew Point: 10°   Wind: 24mph
Humidity: 73%   Direction: 330°NNW
Pressure: 29.82"   Gusts: 36mph
Location:  46.7681°N, 97.6777°W
Report Text: KBAC 241955Z AUTO 33021G31KT 10SM -SN BKN014 M08/M12 A2982 RMK AO2 P0003
Loading
Personal Weather Stations






























Interactive Weather Map New forecast layout! Learn more

10-Day Weather Forecast

Advertisements
Track Severe Weather on mobile